Time;durP1;ratioP1;P1;durP2;ratioP2;P2;SDS_P1;SDS_P2;PMS_P1;PMS_P2;Temp;Humidity;BMP_temperature;BMP_pressure;BME280_temperature;BME280_humidity;BME280_pressure;Samples;Min_cycle;Max_cycle;Signal;HPM_P1;HPM_P2
2023/10/08 00:02:05;;;;;;;2.85;0.55;;;;;;;;;;5055256;28;20403;-76
2023/10/08 00:04:37;;;;;;;3.55;0.30;;;;;;;6.19;nan;96087.28;5071593;28;20051;-76
2023/10/08 00:07:04;;;;;;;1.27;0.30;;;;;;;6.14;nan;96083.47;5071545;28;20047;-72
2023/10/08 00:09:35;;;;;;;1.23;0.57;;;;;;;6.10;nan;96072.41;5056929;28;20043;-77
2023/10/08 00:12:01;;;;;;;0.40;0.40;;;;;;;6.07;nan;96066.63;5055474;28;20094;-80
2023/10/08 00:14:28;;;;;;;0.32;0.32;;;;;;;6.07;nan;96078.03;5037699;28;20052;-73
2023/10/08 00:16:53;;;;;;;1.17;0.40;;;;;;;6.01;nan;96078.69;5057008;28;20049;-72
2023/10/08 00:19:19;;;;;;;0.20;0.20;;;;;;;5.99;nan;96090.44;5072243;28;20051;-73
2023/10/08 00:21:45;;;;;;;1.08;0.68;;;;;;;5.96;nan;96075.75;5056368;28;20051;-72
2023/10/08 00:24:12;;;;;;;0.40;0.40;;;;;;;5.97;nan;96071.28;5054369;28;20056;-70
2023/10/08 00:26:40;;;;;;;0.63;0.30;;;;;;;5.96;nan;96074.94;5056086;28;20506;-72
2023/10/08 00:29:15;;;;;;;0.70;0.68;;;;;;;5.97;nan;96087.97;5071916;28;20066;-72
2023/10/08 00:31:45;;;;;;;1.13;0.30;;;;;;;6.00;nan;96089.44;5072040;28;20051;-71
2023/10/08 00:34:13;;;;;;;0.43;0.32;;;;;;;;;;5056094;28;20048;-71
2023/10/08 00:36:44;;;;;;;0.30;0.30;;;;;;;5.91;nan;96125.66;5055952;28;20041;-73
2023/10/08 00:39:13;;;;;;;2.80;0.50;;;;;;;5.84;nan;96085.00;5054790;28;20059;-74
2023/10/08 00:41:46;;;;;;;0.88;0.47;;;;;;;5.88;nan;96088.09;5056055;28;20047;-74
2023/10/08 00:44:35;;;;;;;0.77;0.30;;;;;;;5.87;nan;96076.72;5071663;28;20054;-74
2023/10/08 00:47:00;;;;;;;0.68;0.30;;;;;;;;;;5020517;28;20043;-73
2023/10/08 00:49:46;;;;;;;1.98;0.50;;;;;;;;;;5060589;28;20040;-72
2023/10/08 00:54:56;;;;;;;2.53;0.43;;;;;;;;;;5037581;28;20063;-73
2023/10/08 00:57:25;;;;;;;0.82;0.50;;;;;;;;;;5056285;28;20040;-77
2023/10/08 00:59:53;;;;;;;1.75;0.30;;;;;;;;;;5073023;28;20056;-76
2023/10/08 01:02:24;;;;;;;2.55;1.52;;;;;;;5.76;nan;96084.97;5057766;28;20036;-76
2023/10/08 01:04:50;;;;;;;3.28;1.08;;;;;;;5.79;nan;96084.66;5055646;28;20043;-78
2023/10/08 01:07:16;;;;;;;0.95;0.40;;;;;;;;;;5052019;28;20537;-75
2023/10/08 01:09:43;;;;;;;0.30;0.30;;;;;;;5.72;nan;96083.69;5068429;28;20445;-76
2023/10/08 01:12:12;;;;;;;1.75;0.20;;;;;;;;;;5037756;28;20556;-74
2023/10/08 01:14:37;;;;;;;1.45;0.50;;;;;;;5.78;nan;96077.72;5067232;28;20044;-75
2023/10/08 01:19:00;;;;;;;0.30;0.30;;;;;;;5.86;89.89;96068.97;5040609;27;20176;-73
2023/10/08 01:21:34;;;;;;;0.95;0.38;;;;;;;5.83;89.83;96085.97;5084959;28;20482;-76
2023/10/08 01:24:05;;;;;;;0.32;0.28;;;;;;;5.82;88.41;96094.91;5070559;28;20051;-78
2023/10/08 01:26:33;;;;;;;0.30;0.30;;;;;;;5.79;88.24;96101.34;5073686;28;20054;-79
2023/10/08 01:29:07;;;;;;;0.20;0.20;;;;;;;;;;5054394;28;20050;-71
2023/10/08 01:31:32;;;;;;;0.40;0.30;;;;;;;;;;5071300;28;20055;-72
2023/10/08 01:33:57;;;;;;;2.03;0.38;;;;;;;5.50;nan;96090.47;5046682;28;20040;-72
2023/10/08 01:36:25;;;;;;;1.38;0.63;;;;;;;;;;5050307;28;20523;-71
2023/10/08 01:38:50;;;;;;;0.47;0.45;;;;;;;5.44;nan;96076.09;5044844;28;20048;-68
2023/10/08 01:41:19;;;;;;;0.70;0.47;;;;;;;5.47;nan;96086.31;5065830;28;20043;-68
2023/10/08 01:43:46;;;;;;;1.45;0.47;;;;;;;5.48;nan;96085.34;5050101;28;20043;-74
2023/10/08 01:46:12;;;;;;;0.28;0.28;;;;;;;5.59;nan;96083.34;5069264;28;20505;-73
2023/10/08 01:48:37;;;;;;;0.60;0.20;;;;;;;;;;5053095;28;20510;-71
2023/10/08 01:51:08;;;;;;;1.65;0.40;;;;;;;5.60;nan;96085.84;5070615;28;20051;-75
2023/10/08 01:53:36;;;;;;;1.02;0.30;;;;;;;5.55;nan;96088.13;5071328;28;20047;-72
2023/10/08 01:56:01;;;;;;;1.50;0.65;;;;;;;5.53;nan;96062.91;5071451;28;20047;-70
2023/10/08 01:58:26;;;;;;;0.50;0.32;;;;;;;5.61;nan;96103.34;5053148;28;20040;-72
2023/10/08 02:00:54;;;;;;;0.45;0.45;;;;;;;5.66;nan;96076.41;5053400;28;20043;-71
2023/10/08 02:03:19;;;;;;;2.63;0.70;;;;;;;5.57;nan;96086.16;5070231;28;20043;-72
2023/10/08 02:05:45;;;;;;;0.55;0.40;;;;;;;;;;5071775;28;20731;-73
2023/10/08 02:08:12;;;;;;;1.02;0.50;;;;;;;5.48;nan;96097.72;5036068;28;20043;-72
2023/10/08 02:10:40;;;;;;;1.23;0.93;;;;;;;5.56;nan;96073.09;5053734;28;20043;-71
2023/10/08 02:13:08;;;;;;;2.90;0.47;;;;;;;5.54;nan;96064.50;5053405;28;20036;-71
2023/10/08 02:15:44;;;;;;;0.55;0.55;;;;;;;5.48;nan;96066.84;5050951;28;20137;-69
2023/10/08 02:18:10;;;;;;;0.30;0.30;;;;;;;;;;5063120;28;20052;-71
2023/10/08 02:20:35;;;;;;;1.60;0.60;;;;;;;5.49;nan;96080.88;5070789;28;20047;-71
2023/10/08 02:23:00;;;;;;;1.05;0.40;;;;;;;5.55;nan;96066.16;5071112;28;20383;-70
2023/10/08 02:25:26;;;;;;;2.38;0.50;;;;;;;5.53;nan;96076.91;5070001;28;20040;-73
2023/10/08 02:27:51;;;;;;;2.25;0.70;;;;;;;5.46;nan;96089.94;5072656;28;20036;-73
2023/10/08 02:30:17;;;;;;;1.30;0.65;;;;;;;5.43;nan;96053.28;5042003;28;20051;-75
2023/10/08 02:32:43;;;;;;;0.57;0.40;;;;;;;5.56;nan;96068.66;5025349;28;20036;-80
2023/10/08 02:35:12;;;;;;;0.85;0.52;;;;;;;5.57;nan;96074.75;5043359;28;20054;-79
2023/10/08 02:37:45;;;;;;;0.88;0.70;;;;;;;5.58;nan;96079.06;4989843;28;20052;-74
2023/10/08 02:40:19;;;;;;;0.52;0.40;;;;;;;5.61;nan;96082.19;5060820;28;20047;-72
2023/10/08 02:42:44;;;;;;;3.60;0.77;;;;;;;;;;5061925;28;20051;-72
2023/10/08 02:45:13;;;;;;;0.45;0.40;;;;;;;;;;5031766;28;20052;-69
2023/10/08 02:47:44;;;;;;;2.50;0.57;;;;;;;5.65;nan;96199.78;5014658;28;20048;-71
2023/10/08 02:50:11;;;;;;;3.53;0.50;;;;;;;;;;5081162;28;20498;-70
2023/10/08 02:52:36;;;;;;;1.45;0.63;;;;;;;5.60;nan;96080.53;5064194;28;20028;-71
2023/10/08 02:55:01;;;;;;;5.13;0.73;;;;;;;5.56;nan;96073.09;5083083;28;20048;-71
2023/10/08 02:57:29;;;;;;;1.38;0.57;;;;;;;5.52;nan;96082.38;5084133;28;20044;-72
2023/10/08 02:59:55;;;;;;;1.48;0.63;;;;;;;5.48;nan;96085.34;5063484;28;20051;-73
2023/10/08 03:02:21;;;;;;;0.75;0.30;;;;;;;5.46;nan;96105.81;5056515;28;20043;-73
2023/10/08 03:04:48;;;;;;;0.77;0.57;;;;;;;;;;5029518;28;20037;-72
2023/10/08 03:07:21;;;;;;;0.60;0.60;;;;;;;;;;5026164;28;20048;-71
2023/10/08 03:09:49;;;;;;;1.17;1.05;;;;;;;;;;5029358;28;20375;-71
2023/10/08 03:12:14;;;;;;;1.23;0.82;;;;;;;;;;5035679;28;20055;-73
2023/10/08 03:15:00;;;;;;;0.40;0.40;;;;;;;5.49;nan;96062.38;5056965;28;20046;-73
2023/10/08 03:17:29;;;;;;;2.53;0.93;;;;;;;5.48;nan;96076.59;5058532;28;20055;-74
2023/10/08 03:20:01;;;;;;;1.55;0.80;;;;;;;;;;5040935;28;20048;-74
2023/10/08 03:22:34;;;;;;;1.50;0.60;;;;;;;5.55;nan;96072.28;5009359;28;20047;-72
2023/10/08 03:25:14;;;;;;;5.00;1.38;;;;;;;5.55;nan;96074.09;5059043;28;20044;-74
2023/10/08 03:27:41;;;;;;;0.57;0.55;;;;;;;5.55;nan;96076.75;5038158;28;20046;-72
2023/10/08 03:30:14;;;;;;;1.10;0.60;;;;;;;5.50;nan;96100.19;5056790;28;20055;-74
2023/10/08 03:32:41;;;;;;;0.60;0.60;;;;;;;;;;5056572;28;20040;-74
2023/10/08 03:35:10;;;;;;;0.70;0.63;;;;;;;5.44;nan;96086.66;5055230;28;20059;-77
2023/10/08 03:37:41;;;;;;;0.80;0.70;;;;;;;;;;5043207;28;20044;-76
2023/10/08 03:42:55;;;;;;;0.47;0.47;;;;;;;5.33;nan;96068.47;5056780;28;20047;-76
2023/10/08 03:48:08;;;;;;;1.30;0.90;;;;;;;5.25;nan;96086.16;5054326;28;20040;-75
2023/10/08 03:50:40;;;;;;;0.52;0.52;;;;;;;5.24;nan;96068.66;5021356;28;20525;-73
2023/10/08 03:53:11;;;;;;;1.40;0.40;;;;;;;;;;5056108;28;20051;-74
2023/10/08 03:55:39;;;;;;;0.82;0.77;;;;;;;;;;5037877;28;20052;-71
2023/10/08 03:58:04;;;;;;;1.27;1.00;;;;;;;5.00;nan;96078.19;5056712;28;20051;-73
2023/10/08 04:00:31;;;;;;;0.50;0.50;;;;;;;;;;5056866;28;20475;-73
2023/10/08 04:03:01;;;;;;;1.45;0.77;;;;;;;5.06;nan;96092.56;5038799;28;20509;-72
2023/10/08 04:05:40;;;;;;;0.93;0.50;;;;;;;;;;5071563;28;20068;-72
2023/10/08 04:08:16;;;;;;;0.45;0.45;;;;;;;5.07;nan;96073.94;5054756;28;20040;-72
2023/10/08 04:13:08;;;;;;;1.10;0.65;;;;;;;5.08;nan;96075.53;5054892;28;20039;-72
2023/10/08 04:15:40;;;;;;;1.02;0.60;;;;;;;5.03;nan;96071.75;5056003;28;20059;-73
2023/10/08 04:18:10;;;;;;;8.52;0.88;;;;;;;;;;5022957;28;20053;-71
2023/10/08 04:20:39;;;;;;;1.38;0.60;;;;;;;5.06;nan;96082.00;5059277;28;20040;-72
2023/10/08 04:23:13;;;;;;;0.98;0.50;;;;;;;5.09;nan;96082.47;5058483;28;20414;-73
2023/10/08 04:25:39;;;;;;;;;;;;;;;5.18;nan;96069.31;5056876;28;20051;-71
2023/10/08 04:28:04;;;;;;;1.33;0.65;;;;;;;5.06;nan;96071.44;5056553;28;20302;-73
2023/10/08 04:30:33;;;;;;;0.75;0.47;;;;;;;5.11;nan;96080.50;5057495;28;20040;-74
2023/10/08 04:33:06;;;;;;;1.02;0.60;;;;;;;5.18;nan;96070.13;5039279;28;20043;-72
2023/10/08 04:35:48;;;;;;;1.67;0.60;;;;;;;5.17;nan;96084.31;5038877;28;20052;-72
2023/10/08 04:38:17;;;;;;;2.33;0.90;;;;;;;5.22;nan;96087.28;5038131;28;20048;-70
2023/10/08 04:40:48;;;;;;;1.38;0.68;;;;;;;;;;5037640;28;20055;-72
2023/10/08 04:43:24;;;;;;;1.52;0.77;;;;;;;5.20;nan;96089.25;5055057;28;20383;-71
2023/10/08 04:45:53;;;;;;;2.33;0.80;;;;;;;5.29;nan;96098.88;5036745;28;20712;-72
2023/10/08 04:48:21;;;;;;;2.75;1.02;;;;;;;;;;5055636;28;20028;-71
2023/10/08 04:50:59;;;;;;;1.83;0.57;;;;;;;5.33;nan;96088.78;5056061;28;20048;-72
2023/10/08 04:53:35;;;;;;;0.73;0.55;;;;;;;5.33;nan;96086.97;5037538;28;20439;-71
2023/10/08 04:56:13;;;;;;;0.60;0.60;;;;;;;5.41;nan;96087.00;5071103;28;20044;-73
2023/10/08 04:58:46;;;;;;;2.40;0.88;;;;;;;5.47;nan;96080.22;5055700;28;20044;-73
2023/10/08 05:01:18;;;;;;;0.80;0.68;;;;;;;5.53;nan;96089.31;5037932;28;20051;-73
2023/10/08 05:09:23;;;;;;;0.95;0.52;;;;;;;5.65;nan;96104.63;5057125;28;20040;-72
2023/10/08 05:14:34;;;;;;;1.17;0.93;;;;;;;5.64;nan;96096.91;5055485;28;20050;-73
2023/10/08 05:17:09;;;;;;;0.90;0.87;;;;;;;5.60;nan;96106.16;5037793;28;20403;-73
2023/10/08 05:22:18;;;;;;;1.02;0.52;;;;;;;5.66;nan;96090.44;5054011;28;20043;-71
2023/10/08 05:25:07;;;;;;;1.02;0.52;;;;;;;;;;5038390;28;20040;-75
2023/10/08 05:30:25;;;;;;;3.13;0.70;;;;;;;;;;5055991;28;20059;-73
2023/10/08 05:38:23;;;;;;;0.80;0.68;;;;;;;5.81;nan;96106.47;5055007;28;20419;-70
2023/10/08 05:59:52;;;;;;;0.95;0.70;;;;;;;5.92;nan;96100.88;4995835;28;20108;-72
2023/10/08 06:05:20;;;;;;;1.02;0.77;;;;;;;6.02;nan;96114.72;4998235;28;20052;-71
2023/10/08 06:13:29;;;;;;;2.97;1.00;;;;;;;5.95;nan;96115.56;4983339;28;20056;-70
2023/10/08 06:18:27;;;;;;;1.42;1.20;;;;;;;5.85;nan;96121.00;4996349;28;20551;-71
2023/10/08 06:20:55;;;;;;;3.78;1.85;;;;;;;;;;4996326;28;20049;-70
2023/10/08 06:23:23;;;;;;;7.13;2.35;;;;;;;5.96;nan;96118.06;4996744;28;20053;-70
2023/10/08 06:26:05;;;;;;;0.65;0.65;;;;;;;6.01;nan;96107.78;5021778;28;20063;-72
2023/10/08 06:28:34;;;;;;;2.47;0.98;;;;;;;5.98;nan;96126.63;5038358;28;20470;-72
2023/10/08 06:31:01;;;;;;;2.75;1.00;;;;;;;6.02;nan;96122.66;5038342;28;20051;-73
2023/10/08 06:33:30;;;;;;;1.85;0.95;;;;;;;5.97;nan;96097.72;5021107;28;20044;-71
2023/10/08 06:36:13;;;;;;;1.15;0.80;;;;;;;6.09;nan;96123.66;5051093;28;20044;-71
2023/10/08 06:38:40;;;;;;;1.15;0.75;;;;;;;6.20;nan;96119.84;5040290;28;20056;-72
2023/10/08 06:41:09;;;;;;;2.50;0.60;;;;;;;6.33;nan;96124.56;5058102;28;20398;-73
2023/10/08 06:43:36;;;;;;;1.40;0.60;;;;;;;;;;5040215;28;20051;-70
2023/10/08 06:46:01;;;;;;;0.50;0.50;;;;;;;;;;5039743;28;20048;-71
2023/10/08 06:48:29;;;;;;;1.27;0.93;;;;;;;6.46;nan;96125.69;5058426;28;20044;-71
2023/10/08 06:50:58;;;;;;;1.15;0.90;;;;;;;6.38;nan;96133.66;5039490;28;20059;-72
2023/10/08 06:53:23;;;;;;;3.63;0.93;;;;;;;6.37;nan;96121.44;5073663;28;20055;-71
2023/10/08 06:55:56;;;;;;;0.50;0.50;;;;;;;6.35;nan;96133.16;5041252;28;20406;-72
2023/10/08 06:58:24;;;;;;;3.60;1.23;;;;;;;;;;5057172;28;20438;-72
2023/10/08 07:00:49;;;;;;;1.25;1.13;;;;;;;6.34;nan;96142.09;5039923;28;20047;-71
2023/10/08 07:03:17;;;;;;;7.53;1.40;;;;;;;6.27;nan;96157.84;5056491;28;20051;-71
2023/10/08 07:05:54;;;;;;;1.90;1.17;;;;;;;6.29;nan;96144.44;5022586;28;20044;-69
2023/10/08 07:08:31;;;;;;;0.90;0.65;;;;;;;6.32;nan;96138.81;5057142;28;20036;-73
2023/10/08 07:10:58;;;;;;;2.90;0.70;;;;;;;;;;5057375;28;20604;-69
2023/10/08 07:13:24;;;;;;;1.55;1.00;;;;;;;;;;5073010;28;20059;-69
2023/10/08 07:15:51;;;;;;;0.70;0.70;;;;;;;6.57;nan;96143.03;5057184;28;20031;-72
2023/10/08 07:18:26;;;;;;;0.88;0.68;;;;;;;6.54;nan;96138.09;5056935;28;20056;-70
2023/10/08 07:20:53;;;;;;;1.45;1.02;;;;;;;6.66;nan;96163.19;5038902;28;20046;-70
2023/10/08 07:23:26;;;;;;;6.50;1.88;;;;;;;6.63;nan;96157.41;5057245;28;20048;-71
2023/10/08 07:25:57;;;;;;;0.80;0.70;;;;;;;6.68;nan;96155.06;5021699;28;20047;-71
2023/10/08 07:28:24;;;;;;;2.63;1.10;;;;;;;6.64;nan;96137.91;5021772;28;20048;-71
2023/10/08 07:30:49;;;;;;;1.55;1.10;;;;;;;6.70;nan;96153.09;5057571;28;20040;-71
2023/10/08 07:33:24;;;;;;;1.88;1.52;;;;;;;6.79;nan;96152.88;5072599;28;20055;-72
2023/10/08 07:35:57;;;;;;;1.35;1.02;;;;;;;6.88;nan;96151.84;5038535;28;20058;-70
2023/10/08 07:38:22;;;;;;;2.45;1.25;;;;;;;6.95;nan;96145.88;5037542;28;20052;-71
2023/10/08 07:40:48;;;;;;;1.40;0.90;;;;;;;6.98;nan;96145.53;5037992;28;20054;-71
2023/10/08 07:43:13;;;;;;;2.33;0.75;;;;;;;;;;5072877;28;20054;-72
2023/10/08 07:45:38;;;;;;;1.65;0.75;;;;;;;6.88;nan;96141.25;5038687;28;20052;-73
2023/10/08 07:48:09;;;;;;;0.85;0.63;;;;;;;6.77;nan;96143.47;5038908;28;20055;-71
2023/10/08 07:50:37;;;;;;;1.75;0.77;;;;;;;6.82;nan;96152.56;5038331;28;20055;-71
2023/10/08 07:53:04;;;;;;;6.65;1.05;;;;;;;6.78;nan;96145.94;5056446;28;20044;-71
2023/10/08 07:55:31;;;;;;;1.08;1.02;;;;;;;;;;5055030;28;20118;-73
2023/10/08 07:57:57;;;;;;;1.00;0.90;;;;;;;6.86;nan;96153.03;5056045;28;20039;-72
2023/10/08 08:00:24;;;;;;;2.42;0.90;;;;;;;6.71;nan;96155.56;5055933;28;20043;-73
2023/10/08 08:02:49;;;;;;;3.03;1.20;;;;;;;6.73;nan;96155.41;5037116;28;20052;-74
2023/10/08 08:05:17;;;;;;;0.93;0.63;;;;;;;;;;5055790;28;20418;-73
2023/10/08 08:07:45;;;;;;;2.67;1.25;;;;;;;6.52;nan;96151.50;5037220;28;20473;-73
2023/10/08 08:10:11;;;;;;;1.85;1.27;;;;;;;6.61;nan;96176.13;5054663;28;20407;-73
2023/10/08 08:12:37;;;;;;;2.70;1.10;;;;;;;6.69;nan;96188.50;5054812;28;20040;-72
2023/10/08 08:15:14;;;;;;;1.40;1.23;;;;;;;6.81;nan;96177.38;5037714;28;20051;-74
2023/10/08 08:17:39;;;;;;;1.35;0.98;;;;;;;;;;5037504;28;20054;-72
2023/10/08 08:20:17;;;;;;;1.42;0.80;;;;;;;;;;5055795;28;20127;-73
2023/10/08 08:22:44;;;;;;;1.33;0.77;;;;;;;;;;5055847;28;20102;-70
2023/10/08 08:25:26;;;;;;;1.50;0.73;;;;;;;7.35;nan;96190.69;5054332;28;20048;-71
2023/10/08 08:27:52;;;;;;;1.60;0.88;;;;;;;7.44;nan;96183.56;5055159;28;20126;-72
2023/10/08 08:30:18;;;;;;;0.98;0.77;;;;;;;7.51;nan;96184.50;5036825;28;20055;-71
2023/10/08 08:32:44;;;;;;;1.20;0.75;;;;;;;;;;5055583;28;20048;-72
2023/10/08 08:35:10;;;;;;;1.40;0.80;;;;;;;7.41;nan;96179.41;5036643;28;20044;-71
2023/10/08 08:37:38;;;;;;;1.77;1.45;;;;;;;7.44;nan;96194.16;5055352;28;20054;-72
2023/10/08 08:40:09;;;;;;;2.55;1.20;;;;;;;;;;5036707;28;20044;-71
2023/10/08 08:42:37;;;;;;;3.13;1.17;;;;;;;7.57;nan;96227.00;5036776;28;20062;-72
2023/10/08 08:45:09;;;;;;;3.13;0.85;;;;;;;;;;5070978;28;20044;-73
2023/10/08 08:47:35;;;;;;;1.75;1.15;;;;;;;7.99;nan;96209.84;5036988;28;20522;-73
2023/10/08 08:50:08;;;;;;;3.22;1.27;;;;;;;8.16;nan;96195.44;5054031;28;20043;-73
2023/10/08 08:52:41;;;;;;;0.70;0.55;;;;;;;8.34;nan;96188.03;5054095;28;20055;-73
2023/10/08 08:55:14;;;;;;;1.73;0.90;;;;;;;8.48;nan;96196.19;5055917;28;20494;-72
2023/10/08 08:57:42;;;;;;;1.48;1.17;;;;;;;8.63;nan;96195.22;5055365;28;20040;-72
2023/10/08 09:00:10;;;;;;;2.35;1.10;;;;;;;8.78;nan;96203.19;5036855;28;20047;-72
2023/10/08 09:02:37;;;;;;;1.02;0.90;;;;;;;8.65;nan;96205.66;5055352;28;20047;-73
2023/10/08 09:05:13;;;;;;;0.77;0.57;;;;;;;8.64;nan;96182.75;5054369;28;20849;-72
2023/10/08 09:07:38;;;;;;;0.68;0.68;;;;;;;;;;5055100;28;20048;-72
2023/10/08 09:10:07;;;;;;;3.05;1.15;;;;;;;8.26;nan;96206.63;5054267;28;20066;-73
2023/10/08 09:12:33;;;;;;;2.25;1.00;;;;;;;8.00;nan;96201.72;5054053;28;20412;-73
2023/10/08 09:15:03;;;;;;;3.72;0.90;;;;;;;8.14;nan;96202.75;5037445;28;20047;-73
2023/10/08 09:17:33;;;;;;;1.60;0.80;;;;;;;8.29;nan;96210.75;5055579;28;20067;-73
2023/10/08 09:19:59;;;;;;;1.75;0.80;;;;;;;8.23;nan;96211.50;5038916;28;20044;-73
2023/10/08 09:22:25;;;;;;;2.83;1.00;;;;;;;8.25;nan;96214.78;5055865;28;20040;-73
2023/10/08 09:24:52;;;;;;;1.58;0.73;;;;;;;;;;5056298;28;20051;-74
2023/10/08 09:27:18;;;;;;;1.15;0.88;;;;;;;7.85;nan;96224.69;5071152;28;20051;-72
2023/10/08 09:29:46;;;;;;;1.40;0.93;;;;;;;7.91;nan;96223.97;5082699;28;20017;-71
2023/10/08 09:32:13;;;;;;;1.77;0.98;;;;;;;7.91;nan;96223.97;5082485;28;20036;-71
2023/10/08 09:34:39;;;;;;;1.48;0.70;;;;;;;7.68;nan;96227.63;5064348;28;20032;-72
2023/10/08 09:37:04;;;;;;;2.88;1.17;;;;;;;7.77;nan;96239.84;5081075;28;20031;-71
2023/10/08 09:39:33;;;;;;;1.00;0.88;;;;;;;7.89;nan;96226.00;5082812;28;20059;-75
2023/10/08 09:42:11;;;;;;;5.88;1.25;;;;;;;7.98;nan;96229.44;5067645;28;20052;-74
2023/10/08 09:44:37;;;;;;;0.60;0.60;;;;;;;7.99;nan;96237.22;5057974;28;20050;-73
2023/10/08 09:47:05;;;;;;;2.15;0.93;;;;;;;8.00;nan;96238.03;5041886;28;20052;-74
2023/10/08 09:49:48;;;;;;;5.93;1.35;;;;;;;7.96;nan;96247.34;5060526;28;20040;-74
2023/10/08 09:52:15;;;;;;;1.08;0.80;;;;;;;;;;5061346;28;20047;-72
2023/10/08 09:54:53;;;;;;;1.45;1.05;;;;;;;7.60;nan;96241.75;5052201;28;20044;-73
2023/10/08 09:57:19;;;;;;;1.85;0.88;;;;;;;7.50;nan;96241.97;5079815;28;20051;-73
2023/10/08 09:59:45;;;;;;;2.00;0.52;;;;;;;7.44;nan;96244.50;5078709;28;20039;-72
2023/10/08 10:02:11;;;;;;;1.48;0.85;;;;;;;7.37;nan;96251.47;5079004;28;20395;-72
2023/10/08 10:04:43;;;;;;;1.45;1.17;;;;;;;7.24;nan;96259.97;5073588;28;20054;-71
2023/10/08 10:07:14;;;;;;;3.63;1.08;;;;;;;7.26;nan;96256.16;5060375;28;20051;-73
2023/10/08 10:09:43;;;;;;;3.28;1.10;;;;;;;7.20;nan;96248.09;5058356;28;20516;-72
2023/10/08 10:12:11;;;;;;;2.33;0.77;;;;;;;7.06;nan;96254.91;5040421;28;20047;-72
2023/10/08 10:14:45;;;;;;;1.02;0.80;;;;;;;6.96;nan;96258.75;5039648;28;20051;-72
2023/10/08 10:17:20;;;;;;;2.17;1.10;;;;;;;6.86;nan;96251.81;5059097;28;20067;-73
2023/10/08 10:19:50;;;;;;;1.13;0.75;;;;;;;6.90;nan;96276.94;5059241;28;20048;-71
2023/10/08 10:22:28;;;;;;;1.48;1.33;;;;;;;6.96;nan;96248.16;5057928;28;20047;-73
2023/10/08 10:24:53;;;;;;;1.35;0.93;;;;;;;6.93;nan;96260.72;5059113;28;20048;-71
2023/10/08 10:27:19;;;;;;;2.42;0.98;;;;;;;6.88;nan;96247.16;5041277;28;20036;-73
2023/10/08 10:29:45;;;;;;;1.30;1.20;;;;;;;;;;5059316;28;20040;-73
2023/10/08 10:32:15;;;;;;;3.53;1.08;;;;;;;6.88;nan;96260.41;5056304;28;20047;-72
2023/10/08 10:34:41;;;;;;;2.45;1.17;;;;;;;;;;5073272;28;20052;-73
2023/10/08 10:37:09;;;;;;;1.60;1.08;;;;;;;6.73;nan;96277.16;5056964;28;20039;-72
2023/10/08 10:39:39;;;;;;;1.27;1.10;;;;;;;6.60;nan;96284.78;5056372;28;20395;-71
2023/10/08 10:42:06;;;;;;;3.58;1.00;;;;;;;6.61;nan;96286.44;5057000;28;20040;-73
2023/10/08 10:44:36;;;;;;;1.73;1.10;;;;;;;6.48;nan;96269.25;5057723;28;20048;-74
2023/10/08 10:52:31;;;;;;;2.13;1.05;;;;;;;6.32;nan;96293.06;5054975;28;20040;-73
2023/10/08 11:03:04;;;;;;;0.93;0.90;;;;;;;6.02;nan;96313.03;5057032;28;20046;-74
2023/10/08 11:05:37;;;;;;;2.28;1.48;;;;;;;5.97;nan;96303.94;5039382;28;20052;-72
2023/10/08 11:08:06;;;;;;;1.98;1.10;;;;;;;;;;5018609;28;20044;-74
2023/10/08 11:10:32;;;;;;;1.60;1.13;;;;;;;;;;5049433;28;20052;-75
2023/10/08 11:13:00;;;;;;;1.60;1.08;;;;;;;5.67;nan;96307.94;5005857;28;20056;-73
2023/10/08 11:15:37;;;;;;;1.67;1.30;;;;;;;5.59;nan;96300.00;5054818;28;20048;-72
2023/10/08 11:18:09;;;;;;;2.67;1.55;;;;;;;5.42;nan;96305.22;5057490;28;20044;-71
2023/10/08 11:20:39;;;;;;;2.58;1.08;;;;;;;;;;5021454;28;20044;-71
2023/10/08 11:23:17;;;;;;;1.80;1.02;;;;;;;5.11;nan;96302.28;5048912;28;20173;-72
2023/10/08 11:25:53;;;;;;;2.53;1.23;;;;;;;5.11;nan;96312.84;5055454;28;20059;-72
2023/10/08 11:28:18;;;;;;;2.72;1.00;;;;;;;4.97;nan;96300.22;5037996;28;20514;-73
2023/10/08 11:30:46;;;;;;;1.10;0.93;;;;;;;4.86;nan;96302.28;5038539;28;20409;-72
2023/10/08 11:33:15;;;;;;;1.67;1.08;;;;;;;4.79;nan;96307.38;5038354;28;20058;-73
2023/10/08 11:35:58;;;;;;;0.80;0.80;;;;;;;4.81;nan;96300.16;5038352;28;20502;-70
2023/10/08 11:38:24;;;;;;;1.75;0.93;;;;;;;4.68;nan;96300.56;5055057;28;20054;-75
2023/10/08 11:40:49;;;;;;;1.80;1.00;;;;;;;4.67;nan;96346.38;5032074;28;20171;-73
2023/10/08 11:43:17;;;;;;;1.02;0.82;;;;;;;4.62;nan;96306.47;5038639;28;20902;-73
2023/10/08 11:45:48;;;;;;;1.10;1.00;;;;;;;4.57;nan;96299.97;5053870;28;20059;-74
2023/10/08 11:48:21;;;;;;;1.73;1.15;;;;;;;4.52;nan;96299.59;5056160;28;20494;-73
2023/10/08 11:50:50;;;;;;;2.63;1.38;;;;;;;4.51;nan;96300.59;5055705;28;20039;-74
2023/10/08 11:53:16;;;;;;;2.92;1.35;;;;;;;4.43;nan;96301.34;5037909;28;20063;-75
2023/10/08 11:55:42;;;;;;;1.73;1.27;;;;;;;4.52;nan;96310.16;5055153;28;20521;-75
2023/10/08 11:58:10;;;;;;;2.25;1.08;;;;;;;4.52;nan;96300.44;5056052;28;20040;-75
2023/10/08 12:00:44;;;;;;;2.30;1.17;;;;;;;;;;5054537;28;20424;-73
2023/10/08 12:03:11;;;;;;;1.90;1.13;;;;;;;;;;5054474;28;20051;-75
2023/10/08 12:05:36;;;;;;;1.48;0.93;;;;;;;4.50;nan;96301.59;5027458;28;20055;-75
2023/10/08 12:08:02;;;;;;;1.42;1.23;;;;;;;4.47;nan;96296.59;5043814;28;20044;-75
2023/10/08 12:10:31;;;;;;;0.95;0.95;;;;;;;4.41;nan;96302.47;5060375;28;20450;-75
2023/10/08 12:12:59;;;;;;;1.92;1.30;;;;;;;4.46;nan;96305.50;5070175;28;20047;-84
2023/10/08 12:15:34;;;;;;;1.58;1.30;;;;;;;4.42;nan;96310.25;5067071;28;20048;-78
2023/10/08 12:18:11;;;;;;;7.97;1.75;;;;;;;4.36;nan;96310.88;5073006;28;20055;-78
2023/10/08 12:20:38;;;;;;;3.47;1.52;;;;;;;4.19;nan;96315.16;5040415;28;20056;-77
2023/10/08 12:23:05;;;;;;;0.85;0.77;;;;;;;4.15;nan;96303.28;5038703;28;20037;-80
2023/10/08 12:25:32;;;;;;;2.75;1.38;;;;;;;4.04;nan;96305.31;5053181;28;20458;-77
2023/10/08 12:27:57;;;;;;;1.35;1.10;;;;;;;3.99;nan;96309.22;5036064;28;20056;-74
2023/10/08 12:30:30;;;;;;;0.93;0.88;;;;;;;;;;5034348;28;20040;-76
2023/10/08 12:32:57;;;;;;;2.00;0.95;;;;;;;3.90;nan;96314.56;5036230;28;20521;-74
2023/10/08 12:35:24;;;;;;;1.30;1.20;;;;;;;;;;5035823;28;20056;-75
2023/10/08 12:37:48;;;;;;;1.88;1.23;;;;;;;;;;5035513;28;20499;-75
2023/10/08 12:40:22;;;;;;;4.60;1.10;;;;;;;3.86;nan;96303.50;5035030;28;20522;-74
2023/10/08 12:42:54;;;;;;;2.72;1.45;;;;;;;;;;5017764;28;20048;-76
2023/10/08 12:45:22;;;;;;;1.33;1.10;;;;;;;3.90;nan;96301.41;5035362;28;20051;-78
2023/10/08 12:47:49;;;;;;;2.22;1.17;;;;;;;;;;5035179;28;20041;-76
2023/10/08 12:50:15;;;;;;;2.00;1.17;;;;;;;3.91;nan;96295.16;5033878;28;20044;-77
2023/10/08 12:52:52;;;;;;;1.35;0.93;;;;;;;3.89;nan;96312.91;5033350;28;20048;-75
2023/10/08 12:55:23;;;;;;;1.27;1.13;;;;;;;;;;5050766;28;20052;-74
2023/10/08 12:57:54;;;;;;;1.95;1.13;;;;;;;3.94;nan;96306.22;5035209;28;20036;-76
2023/10/08 13:00:23;;;;;;;1.98;1.48;;;;;;;3.89;nan;96302.38;5035342;28;20051;-74
2023/10/08 13:02:53;;;;;;;0.65;0.57;;;;;;;3.97;nan;96310.34;5050924;28;20407;-74
2023/10/08 13:05:21;;;;;;;0.98;0.98;;;;;;;3.93;nan;96288.75;5035066;28;20056;-76
2023/10/08 13:07:46;;;;;;;1.77;1.30;;;;;;;3.87;nan;96304.31;5033774;28;20048;-76
2023/10/08 13:10:14;;;;;;;2.15;1.15;;;;;;;3.89;nan;96303.19;5035262;28;20399;-73
2023/10/08 13:12:39;;;;;;;1.10;1.02;;;;;;;3.91;nan;96311.78;5067449;28;20048;-73
2023/10/08 13:15:06;;;;;;;2.10;0.98;;;;;;;;;;5051085;28;20044;-77
2023/10/08 13:17:31;;;;;;;1.33;1.20;;;;;;;3.76;nan;96308.00;5040345;28;20075;-70
2023/10/08 13:19:56;;;;;;;1.80;1.33;;;;;;;3.76;nan;96313.28;5053512;28;20052;-73
2023/10/08 13:22:24;;;;;;;3.58;1.65;;;;;;;3.77;nan;96308.84;5057898;28;20031;-74
2023/10/08 13:24:49;;;;;;;1.75;0.70;;;;;;;;;;5067484;28;20040;-78
2023/10/08 13:27:16;;;;;;;0.60;0.60;;;;;;;3.70;nan;96313.88;5062942;28;20124;-79
2023/10/08 13:29:43;;;;;;;1.17;1.08;;;;;;;3.69;nan;96306.94;5051863;28;20054;-74
2023/10/08 13:32:17;;;;;;;0.82;0.82;;;;;;;3.65;nan;96316.13;5065625;28;20036;-78
2023/10/08 13:34:44;;;;;;;0.60;0.60;;;;;;;3.55;nan;96310.06;5059827;28;20059;-82
2023/10/08 13:37:09;;;;;;;1.55;0.85;;;;;;;;;;5068809;28;20050;-78
2023/10/08 13:39:35;;;;;;;0.60;0.60;;;;;;;3.48;nan;96320.38;5071110;28;20032;-81
2023/10/08 13:42:01;;;;;;;0.93;0.93;;;;;;;3.45;nan;96314.56;5085724;28;20036;-81
2023/10/08 13:44:29;;;;;;;1.48;0.88;;;;;;;3.37;nan;96312.69;5049944;28;20055;-79
2023/10/08 13:46:57;;;;;;;1.08;0.68;;;;;;;;;;5060248;28;20047;-78
2023/10/08 13:49:22;;;;;;;2.72;1.92;;;;;;;3.32;nan;96319.34;5059041;28;20051;-78
2023/10/08 13:51:55;;;;;;;0.93;0.82;;;;;;;;;;5038947;28;20040;-80
2023/10/08 13:54:20;;;;;;;2.10;0.90;;;;;;;3.13;nan;96330.81;5058014;28;20047;-81
2023/10/08 13:56:48;;;;;;;2.50;1.08;;;;;;;3.04;nan;96321.97;5041344;28;20048;-74